createdAt,value
2018-12-03T00:02:41.343Z,6.70
2018-12-03T00:07:36.022Z,6.70
2018-12-03T00:12:30.884Z,6.70
2018-12-03T00:17:25.620Z,6.70
2018-12-03T00:22:20.441Z,6.70
2018-12-03T00:27:16.514Z,6.70
2018-12-03T00:32:11.480Z,6.80
2018-12-03T00:37:06.712Z,6.80
2018-12-03T00:42:01.429Z,6.70
2018-12-03T00:46:56.302Z,6.70
2018-12-03T00:51:52.469Z,6.80
2018-12-03T00:56:47.686Z,6.70
2018-12-03T01:01:42.407Z,6.70
2018-12-03T01:06:37.421Z,6.70
2018-12-03T01:11:32.901Z,6.80
2018-12-03T01:16:27.804Z,6.80
2018-12-03T01:21:22.838Z,6.80
2018-12-03T01:26:18.016Z,6.80
2018-12-03T01:31:13.159Z,6.80
2018-12-03T01:36:07.983Z,6.80
2018-12-03T01:41:02.720Z,6.90
2018-12-03T01:45:57.828Z,6.90
2018-12-03T01:50:52.933Z,6.80
2018-12-03T01:55:48.036Z,6.90
2018-12-03T02:00:44.128Z,6.90
2018-12-03T02:05:39.992Z,6.90
2018-12-03T02:10:36.022Z,7.00
2018-12-03T02:15:30.855Z,7.00
2018-12-03T02:20:29.848Z,7.00
2018-12-03T02:25:24.603Z,7.10
2018-12-03T02:30:21.580Z,7.20
2018-12-03T02:35:16.715Z,7.20
2018-12-03T02:40:13.464Z,7.20
2018-12-03T02:45:12.551Z,7.20
2018-12-03T02:50:08.993Z,7.30
2018-12-03T02:55:03.934Z,7.30
2018-12-03T02:59:58.839Z,7.30
2018-12-03T03:04:56.582Z,7.40
2018-12-03T03:09:51.316Z,7.40
2018-12-03T03:14:46.321Z,7.40
2018-12-03T03:19:41.099Z,7.40
2018-12-03T03:24:36.061Z,7.50
2018-12-03T03:29:31.531Z,7.40
2018-12-03T03:34:26.358Z,7.40
2018-12-03T03:39:21.273Z,7.40
2018-12-03T03:44:16.239Z,7.40
2018-12-03T03:49:11.094Z,7.40
2018-12-03T03:54:07.144Z,7.50
2018-12-03T03:59:01.799Z,7.50
2018-12-03T04:03:56.538Z,7.60
2018-12-03T04:08:54.322Z,7.60
2018-12-03T04:13:49.096Z,7.40
2018-12-03T04:18:44.662Z,7.40
2018-12-03T04:23:39.769Z,7.40
2018-12-03T04:28:37.523Z,7.50
2018-12-03T04:33:34.321Z,7.50
2018-12-03T04:38:30.417Z,7.50
2018-12-03T04:43:25.374Z,7.50
2018-12-03T04:48:20.189Z,7.60
2018-12-03T04:53:15.486Z,7.60
2018-12-03T04:58:10.875Z,7.70
2018-12-03T05:03:07.787Z,7.80
2018-12-03T05:08:02.460Z,7.80
2018-12-03T05:13:00.918Z,7.90
2018-12-03T05:17:55.309Z,7.90
2018-12-03T05:22:50.374Z,7.90
2018-12-03T05:27:45.447Z,8.00
2018-12-03T05:32:41.072Z,7.90
2018-12-03T05:37:35.638Z,7.90
2018-12-03T05:42:30.705Z,7.90
2018-12-03T05:47:26.103Z,7.90
2018-12-03T05:52:21.191Z,8.00
2018-12-03T05:57:15.734Z,7.90
2018-12-03T06:02:11.423Z,7.90
2018-12-03T06:07:06.303Z,7.80
2018-12-03T06:12:01.459Z,7.80
2018-12-03T06:16:57.709Z,7.70
2018-12-03T06:21:56.028Z,7.70
2018-12-03T06:26:51.098Z,7.60
2018-12-03T06:31:46.487Z,7.60
2018-12-03T06:36:41.298Z,7.60
2018-12-03T06:41:36.328Z,7.60
2018-12-03T06:46:30.869Z,7.60
2018-12-03T06:51:25.651Z,7.60
2018-12-03T06:56:23.621Z,7.70
2018-12-03T07:01:19.143Z,7.70
2018-12-03T07:06:14.904Z,7.70
2018-12-03T07:11:09.656Z,7.70
2018-12-03T07:16:04.908Z,7.80
2018-12-03T07:21:01.355Z,7.80
2018-12-03T07:25:57.699Z,7.80
2018-12-03T07:30:52.372Z,7.70
2018-12-03T07:35:47.062Z,7.70
2018-12-03T07:40:42.720Z,7.60
2018-12-03T07:45:41.561Z,7.60
2018-12-03T07:50:36.972Z,7.70
2018-12-03T07:55:33.944Z,7.80
2018-12-03T08:00:33.943Z,7.90
2018-12-03T08:05:30.805Z,8.00
2018-12-03T08:10:25.888Z,8.00
2018-12-03T08:15:22.210Z,8.10
2018-12-03T08:20:28.226Z,8.30
2018-12-03T08:25:26.403Z,8.30
2018-12-03T08:30:21.908Z,8.40
2018-12-03T08:35:17.715Z,8.50
2018-12-03T08:40:14.865Z,8.40
2018-12-03T08:45:10.190Z,8.50
2018-12-03T08:50:08.187Z,8.70
2018-12-03T08:55:03.283Z,9.20
2018-12-03T08:59:59.615Z,9.50
2018-12-03T09:04:54.419Z,9.80
2018-12-03T09:09:49.531Z,10.00
2018-12-03T09:14:44.335Z,10.30
2018-12-03T09:19:39.176Z,10.60
2018-12-03T09:24:33.747Z,10.40
2018-12-03T09:29:29.038Z,10.30
2018-12-03T09:34:24.595Z,10.30
2018-12-03T09:39:19.617Z,10.20
2018-12-03T09:44:14.566Z,10.70
2018-12-03T09:49:10.392Z,11.20
2018-12-03T09:54:08.630Z,11.30
2018-12-03T09:59:09.129Z,11.10
2018-12-03T10:04:05.934Z,11.60
2018-12-03T10:09:02.381Z,12.10
2018-12-03T10:13:57.089Z,12.10
2018-12-03T10:18:52.512Z,12.30
2018-12-03T10:23:47.842Z,12.70
2018-12-03T10:29:20.329Z,14.30
2018-12-03T10:34:14.809Z,17.10
2018-12-03T10:39:09.461Z,20.10
2018-12-03T10:44:02.611Z,22.20
2018-12-03T10:48:56.265Z,20.30
2018-12-03T10:53:49.321Z,19.30
2018-12-03T10:58:44.972Z,18.80
2018-12-03T11:09:25.920Z,21.10
2018-12-03T11:14:20.715Z,19.10
2018-12-03T11:19:15.090Z,17.80
2018-12-03T11:24:10.554Z,19.80
2018-12-03T11:29:04.204Z,25.30
2018-12-03T11:33:57.885Z,26.90
2018-12-03T11:38:54.264Z,24.10
2018-12-03T11:43:47.146Z,22.70
2018-12-03T11:48:42.013Z,21.10
2018-12-03T11:53:37.311Z,19.90
2018-12-03T11:58:30.760Z,19.30
2018-12-03T12:03:23.786Z,18.80
2018-12-03T12:08:17.677Z,18.50
2018-12-03T12:13:11.565Z,18.40
2018-12-03T12:18:08.036Z,18.10
2018-12-03T12:23:01.755Z,17.70
2018-12-03T12:27:56.102Z,17.40
2018-12-03T12:32:49.136Z,17.10
2018-12-03T12:37:45.220Z,16.80
2018-12-03T12:42:38.578Z,16.50
2018-12-03T12:47:32.653Z,16.40
2018-12-03T12:52:25.657Z,16.20
2018-12-03T12:57:18.832Z,16.10
2018-12-03T13:02:11.806Z,15.90
2018-12-03T13:07:13.673Z,15.60
2018-12-03T13:12:11.306Z,15.20
2018-12-03T13:17:04.425Z,14.90
2018-12-03T13:21:57.507Z,14.70
2018-12-03T13:26:50.356Z,14.70
2018-12-03T13:31:47.022Z,14.70
2018-12-03T13:36:42.646Z,14.60
2018-12-03T13:41:35.713Z,14.60
2018-12-03T13:46:30.115Z,14.60
2018-12-03T13:51:23.388Z,14.70
2018-12-03T13:56:19.631Z,14.80
2018-12-03T14:01:15.477Z,14.80
2018-12-03T14:06:08.601Z,14.70
2018-12-03T14:11:01.766Z,14.30
2018-12-03T14:15:54.794Z,14.10
2018-12-03T14:20:48.001Z,13.90
2018-12-03T14:25:41.172Z,13.90
2018-12-03T14:30:34.472Z,14.10
2018-12-03T14:35:27.373Z,14.10
2018-12-03T14:40:20.754Z,14.10
2018-12-03T14:45:13.927Z,14.00
2018-12-03T14:50:08.315Z,14.00
2018-12-03T14:55:02.316Z,14.00
2018-12-03T14:59:55.859Z,13.90
2018-12-03T15:04:49.380Z,13.80
2018-12-03T15:09:42.348Z,13.50
2018-12-03T15:14:35.215Z,13.20
2018-12-03T15:19:34.220Z,12.90
2018-12-03T15:24:27.167Z,12.80
2018-12-03T15:29:20.572Z,12.70
2018-12-03T15:34:13.538Z,12.50
2018-12-03T15:39:07.119Z,12.30
2018-12-03T15:44:00.088Z,12.20
2018-12-03T15:48:53.718Z,12.00
2018-12-03T15:53:47.136Z,11.90
2018-12-03T15:58:40.118Z,11.80
2018-12-03T16:03:33.749Z,11.50
2018-12-03T16:08:26.977Z,11.30
2018-12-03T16:13:21.368Z,11.10
2018-12-03T16:18:14.347Z,10.90
2018-12-03T16:23:08.251Z,10.80
2018-12-03T16:32:48.765Z,10.70
2018-12-03T16:37:41.816Z,10.60
2018-12-03T16:42:34.686Z,10.60
2018-12-03T16:47:28.776Z,10.70
2018-12-03T16:52:22.218Z,10.80
2018-12-03T16:57:15.334Z,10.90
2018-12-03T17:02:08.546Z,10.90
2018-12-03T17:07:02.722Z,10.80
2018-12-03T17:11:58.016Z,10.70
2018-12-03T17:16:51.913Z,10.80
2018-12-03T17:21:46.715Z,10.80
2018-12-03T17:26:40.614Z,10.70
2018-12-03T17:31:36.596Z,10.80
2018-12-03T17:36:30.337Z,10.80
2018-12-03T17:41:23.478Z,10.80
2018-12-03T17:46:16.276Z,10.80
2018-12-03T17:51:09.460Z,10.80
2018-12-03T17:56:02.567Z,10.70
2018-12-03T18:00:56.714Z,10.60
2018-12-03T18:05:49.585Z,10.50
2018-12-03T18:10:43.214Z,10.50
2018-12-03T18:15:37.116Z,10.40
2018-12-03T18:20:30.989Z,10.40
2018-12-03T18:25:23.960Z,10.60
2018-12-03T18:30:17.240Z,10.80
2018-12-03T18:35:10.157Z,10.80
2018-12-03T18:40:03.535Z,10.70
2018-12-03T18:44:56.605Z,10.70
2018-12-03T18:49:50.035Z,10.60
2018-12-03T18:54:44.273Z,10.50
2018-12-03T18:59:38.810Z,10.30
2018-12-03T19:04:33.129Z,10.00
2018-12-03T19:09:35.326Z,9.80
2018-12-03T19:14:29.124Z,9.70
2018-12-03T19:19:22.727Z,9.70
2018-12-03T19:24:16.256Z,9.80
2018-12-03T19:29:09.901Z,9.80
2018-12-03T19:34:06.680Z,9.50
2018-12-03T19:39:01.800Z,9.30
2018-12-03T19:43:55.578Z,9.30
2018-12-03T19:48:49.975Z,9.50
2018-12-03T19:53:43.933Z,9.70
2018-12-03T19:58:37.696Z,9.80
2018-12-03T20:03:31.458Z,9.80
2018-12-03T20:08:41.436Z,9.90
2018-12-03T20:13:36.140Z,10.10
2018-12-03T20:18:29.822Z,10.20
2018-12-03T20:23:27.402Z,10.30
2018-12-03T20:28:21.293Z,10.40
2018-12-03T20:33:14.915Z,10.40
2018-12-03T20:38:08.638Z,10.50
2018-12-03T20:43:04.474Z,10.60
2018-12-03T20:47:57.477Z,10.70
2018-12-03T20:52:50.465Z,10.70
2018-12-03T20:57:50.644Z,10.60
2018-12-03T21:02:44.164Z,10.60
2018-12-03T21:07:37.091Z,10.60
2018-12-03T21:12:31.105Z,10.60
2018-12-03T21:17:24.256Z,10.70
2018-12-03T21:22:17.387Z,10.80
2018-12-03T21:27:10.295Z,10.90
2018-12-03T21:32:03.685Z,10.80
2018-12-03T21:36:57.920Z,10.70
2018-12-03T21:41:50.942Z,10.60
2018-12-03T21:46:44.012Z,10.50
2018-12-03T21:51:37.191Z,10.40
2018-12-03T21:56:30.154Z,10.40
2018-12-03T22:01:23.771Z,10.50
2018-12-03T22:06:16.744Z,10.40
2018-12-03T22:11:10.057Z,10.40
2018-12-03T22:16:05.200Z,10.30
2018-12-03T22:21:00.327Z,10.30
2018-12-03T22:25:53.191Z,10.20
2018-12-03T22:30:46.156Z,10.20
2018-12-03T22:35:39.230Z,10.20
2018-12-03T22:40:32.192Z,10.20
2018-12-03T22:45:26.082Z,10.10
2018-12-03T22:50:19.359Z,10.10
2018-12-03T22:55:12.327Z,10.10
2018-12-03T23:00:11.988Z,10.20
2018-12-03T23:05:06.020Z,10.20
2018-12-03T23:10:00.386Z,10.30
2018-12-03T23:14:53.312Z,10.30
2018-12-03T23:19:46.272Z,10.30
2018-12-03T23:24:40.178Z,10.30
2018-12-03T23:29:33.388Z,10.30
2018-12-03T23:34:26.314Z,10.20
2018-12-03T23:39:19.382Z,10.20
2018-12-03T23:44:12.420Z,10.10
2018-12-03T23:49:05.684Z,10.20
2018-12-03T23:53:58.714Z,10.00
2018-12-03T23:58:51.766Z,10.00
